Time;durP1;ratioP1;P1;durP2;ratioP2;P2;SDS_P1;SDS_P2;PMS_P1;PMS_P2;Temp;Humidity;BMP_temperature;BMP_pressure;BME280_temperature;BME280_humidity;BME280_pressure;Samples;Min_cycle;Max_cycle;Signal;HPM_P1;HPM_P2
2022/12/31 00:01:16;;;;;;;0.10;0.10;;;12.50;99.90;;;;;;5055246;28;20785;-81
2022/12/31 00:03:42;;;;;;;0.10;0.10;;;12.50;99.90;;;;;;5056530;28;20260;-81
2022/12/31 00:06:12;;;;;;;0.10;0.10;;;12.50;99.90;;;;;;5055987;28;20280;-81
2022/12/31 00:08:37;;;;;;;0.10;0.10;;;12.50;99.90;;;;;;5057213;28;20182;-81
2022/12/31 00:11:03;;;;;;;0.10;0.10;;;12.50;99.90;;;;;;5057302;28;20259;-81
2022/12/31 00:13:29;;;;;;;0.10;0.10;;;12.50;99.90;;;;;;5070720;28;20193;-81
2022/12/31 00:15:54;;;;;;;0.10;0.10;;;12.50;99.90;;;;;;5073008;28;20197;-81
2022/12/31 00:18:20;;;;;;;0.10;0.10;;;12.60;99.90;;;;;;5056290;28;20177;-81
2022/12/31 00:20:45;;;;;;;0.10;0.10;;;12.60;99.90;;;;;;5053850;28;20738;-81
2022/12/31 00:23:11;;;;;;;0.10;0.10;;;12.60;99.90;;;;;;5071548;28;20181;-81
2022/12/31 00:25:36;;;;;;;0.10;0.10;;;12.70;99.90;;;;;;5069874;28;20212;-81
2022/12/31 00:28:03;;;;;;;0.10;0.10;;;12.70;99.90;;;;;;5054980;28;20188;-81
2022/12/31 00:30:29;;;;;;;0.07;0.07;;;12.80;99.90;;;;;;5057067;28;20197;-82
2022/12/31 00:32:54;;;;;;;0.10;0.10;;;12.80;99.90;;;;;;5072408;28;20971;-82
2022/12/31 00:35:20;;;;;;;0.10;0.10;;;12.80;99.90;;;;;;5054683;28;20932;-82
2022/12/31 00:37:45;;;;;;;0.10;0.10;;;12.80;99.90;;;;;;5056176;28;20639;-82
2022/12/31 00:40:11;;;;;;;0.10;0.10;;;12.80;99.90;;;;;;5055939;28;20227;-82
2022/12/31 00:42:36;;;;;;;0.10;0.10;;;12.90;99.90;;;;;;5074972;28;20236;-82
2022/12/31 00:45:02;;;;;;;0.10;0.10;;;12.80;99.90;;;;;;5056134;28;20182;-83
2022/12/31 00:47:28;;;;;;;0.07;0.07;;;12.90;99.90;;;;;;5055484;28;20228;-83
2022/12/31 00:49:53;;;;;;;0.10;0.10;;;12.90;99.90;;;;;;5070307;28;20188;-80
2022/12/31 00:52:19;;;;;;;0.10;0.10;;;12.90;99.90;;;;;;5073032;28;20771;-83
2022/12/31 00:54:44;;;;;;;0.00;0.00;;;12.90;99.90;;;;;;5067406;28;20204;-82
2022/12/31 00:57:10;;;;;;;0.10;0.10;;;12.90;99.90;;;;;;5069518;28;20709;-82
2022/12/31 00:59:35;;;;;;;0.10;0.10;;;13.00;99.90;;;;;;5070658;28;20182;-82
2022/12/31 01:02:01;;;;;;;0.10;0.10;;;13.00;99.90;;;;;;5057119;28;20610;-82
2022/12/31 01:04:26;;;;;;;0.10;0.10;;;13.00;99.90;;;;;;5071423;28;20179;-82
2022/12/31 01:06:52;;;;;;;0.10;0.10;;;13.00;99.90;;;;;;5056343;28;20185;-81
2022/12/31 01:09:17;;;;;;;0.10;0.10;;;13.10;99.90;;;;;;5057431;28;20209;-82
2022/12/31 01:11:43;;;;;;;0.00;0.00;;;13.10;99.90;;;;;;5071328;28;20205;-82
2022/12/31 01:14:15;;;;;;;0.00;0.00;;;13.10;99.90;;;;;;5057879;28;20195;-82
2022/12/31 01:16:49;;;;;;;0.10;0.10;;;13.10;99.90;;;;;;5070261;28;20347;-82
2022/12/31 01:19:23;;;;;;;0.10;0.10;;;13.20;99.90;;;;;;5069666;28;20280;-83
2022/12/31 01:21:50;;;;;;;0.10;0.10;;;13.20;99.90;;;;;;5070105;28;20212;-82
2022/12/31 01:24:16;;;;;;;0.10;0.10;;;13.20;99.90;;;;;;5055278;28;20220;-82
2022/12/31 01:26:42;;;;;;;0.10;0.10;;;13.20;99.90;;;;;;5054082;28;20246;-82
2022/12/31 01:29:09;;;;;;;0.10;0.10;;;13.20;99.90;;;;;;5071215;28;20183;-82
2022/12/31 01:31:36;;;;;;;0.10;0.10;;;13.20;99.90;;;;;;5054192;28;20316;-83
2022/12/31 01:34:02;;;;;;;0.10;0.10;;;13.20;99.90;;;;;;5051315;28;20335;-82
2022/12/31 01:36:29;;;;;;;0.10;0.10;;;13.30;99.90;;;;;;5054591;28;20838;-82
2022/12/31 01:38:57;;;;;;;0.10;0.10;;;13.30;99.90;;;;;;5070551;28;20283;-82
2022/12/31 01:41:29;;;;;;;0.10;0.10;;;13.30;99.90;;;;;;5055463;28;20203;-82
2022/12/31 01:44:00;;;;;;;0.10;0.10;;;13.30;99.90;;;;;;5054248;28;20190;-82
2022/12/31 01:46:40;;;;;;;0.10;0.10;;;13.40;99.90;;;;;;5052897;28;20190;-81
2022/12/31 01:49:20;;;;;;;0.10;0.10;;;13.40;99.90;;;;;;5052701;28;20218;-82
2022/12/31 01:51:49;;;;;;;0.10;0.10;;;13.40;99.90;;;;;;5069946;28;20232;-82
2022/12/31 01:54:18;;;;;;;0.10;0.10;;;13.50;99.90;;;;;;5055477;28;20636;-82
2022/12/31 01:56:46;;;;;;;0.10;0.10;;;13.50;99.90;;;;;;5055026;28;21211;-81
2022/12/31 01:59:15;;;;;;;0.10;0.10;;;13.50;99.90;;;;;;5067888;28;20210;-82
2022/12/31 02:01:41;;;;;;;0.10;0.10;;;13.50;99.90;;;;;;5052139;28;20684;-82
2022/12/31 02:04:10;;;;;;;0.10;0.10;;;13.50;99.90;;;;;;5070730;28;20222;-82
2022/12/31 02:06:50;;;;;;;0.10;0.10;;;13.60;99.90;;;;;;5054410;28;20672;-82
2022/12/31 02:09:16;;;;;;;0.10;0.10;;;13.60;99.90;;;;;;5054937;28;20184;-82
2022/12/31 02:11:42;;;;;;;0.10;0.10;;;13.60;99.90;;;;;;5068759;28;20560;-82
2022/12/31 02:14:13;;;;;;;0.10;0.10;;;13.60;99.90;;;;;;5055311;28;20187;-82
2022/12/31 02:17:09;;;;;;;0.10;0.10;;;13.70;99.90;;;;;;5054921;28;20222;-82
2022/12/31 02:19:53;;;;;;;0.10;0.10;;;13.70;99.90;;;;;;5069223;28;20191;-82
2022/12/31 02:22:42;;;;;;;0.10;0.10;;;13.70;99.90;;;;;;5066229;28;20200;-82
2022/12/31 02:25:40;;;;;;;0.10;0.10;;;13.70;99.90;;;;;;5067967;28;20185;-82
2022/12/31 02:28:17;;;;;;;0.10;0.10;;;13.70;99.90;;;;;;5029591;28;20213;-82
2022/12/31 02:30:47;;;;;;;0.10;0.10;;;13.80;99.90;;;;;;5068610;28;20198;-82
2022/12/31 02:33:22;;;;;;;0.10;0.10;;;13.80;99.90;;;;;;5051387;28;20188;-82
2022/12/31 02:36:01;;;;;;;0.10;0.10;;;13.80;99.90;;;;;;5067522;28;20242;-82
2022/12/31 02:38:34;;;;;;;0.10;0.10;;;13.80;99.90;;;;;;5053431;28;20196;-82
2022/12/31 02:41:00;;;;;;;0.10;0.10;;;13.80;99.90;;;;;;5053831;28;20211;-82
2022/12/31 02:43:26;;;;;;;0.10;0.10;;;13.80;99.90;;;;;;5067330;28;20233;-82
2022/12/31 02:46:09;;;;;;;0.10;0.10;;;13.80;99.90;;;;;;5069141;28;20203;-82
2022/12/31 02:48:54;;;;;;;0.10;0.10;;;13.80;99.90;;;;;;5068904;28;20267;-83
2022/12/31 02:51:35;;;;;;;0.10;0.10;;;13.80;99.90;;;;;;5053830;28;20222;-82
2022/12/31 02:54:14;;;;;;;0.10;0.10;;;13.90;99.90;;;;;;5070286;28;20186;-83
2022/12/31 02:57:04;;;;;;;0.10;0.10;;;13.90;99.90;;;;;;5066132;28;20222;-83
2022/12/31 03:02:27;;;;;;;0.10;0.10;;;13.90;99.90;;;;;;5052868;28;20218;-82
2022/12/31 03:04:57;;;;;;;0.10;0.10;;;14.00;99.90;;;;;;5066985;28;20282;-82
2022/12/31 03:07:26;;;;;;;0.10;0.10;;;14.00;99.90;;;;;;5068496;28;20200;-81
2022/12/31 03:09:52;;;;;;;0.10;0.10;;;14.00;99.90;;;;;;5052533;28;20302;-82
2022/12/31 03:15:06;;;;;;;0.10;0.10;;;14.10;99.90;;;;;;5053091;28;20223;-82
2022/12/31 03:17:34;;;;;;;0.10;0.10;;;14.10;99.90;;;;;;5052890;28;20212;-82
2022/12/31 03:22:44;;;;;;;0.10;0.10;;;14.10;99.90;;;;;;5052579;28;20293;-82
2022/12/31 03:27:57;;;;;;;0.10;0.10;;;14.10;99.90;;;;;;5051553;28;20721;-83
2022/12/31 03:30:24;;;;;;;0.10;0.10;;;14.20;99.90;;;;;;5052946;28;20187;-83
2022/12/31 03:32:50;;;;;;;0.10;0.10;;;14.20;99.90;;;;;;5052259;28;20644;-83
2022/12/31 03:35:19;;;;;;;0.10;0.10;;;14.20;99.90;;;;;;5053873;28;20638;-82
2022/12/31 03:37:46;;;;;;;0.10;0.10;;;14.20;99.90;;;;;;5051756;28;20194;-82
2022/12/31 03:40:12;;;;;;;0.03;0.03;;;14.30;99.90;;;;;;5052404;28;20211;-82
2022/12/31 03:42:38;;;;;;;0.10;0.10;;;14.30;99.90;;;;;;5049643;28;20305;-83
2022/12/31 03:45:04;;;;;;;0.10;0.10;;;14.20;99.90;;;;;;5052629;28;20183;-82
2022/12/31 03:47:30;;;;;;;0.10;0.10;;;14.20;99.90;;;;;;5051309;28;20602;-82
2022/12/31 03:49:55;;;;;;;0.10;0.10;;;14.20;99.90;;;;;;5052187;28;20192;-83
2022/12/31 03:52:21;;;;;;;0.10;0.10;;;14.30;99.90;;;;;;5050927;28;20216;-81
2022/12/31 03:54:47;;;;;;;0.10;0.10;;;14.30;99.90;;;;;;5052908;28;20340;-83
2022/12/31 03:57:12;;;;;;;0.10;0.10;;;14.30;99.90;;;;;;5067019;28;20558;-82
2022/12/31 03:59:38;;;;;;;0.10;0.10;;;14.30;99.90;;;;;;5067312;28;20201;-82
2022/12/31 04:02:04;;;;;;;0.10;0.10;;;14.30;99.90;;;;;;5051219;28;20208;-81
2022/12/31 04:04:29;;;;;;;0.10;0.10;;;14.30;99.90;;;;;;5049861;28;20199;-83
2022/12/31 04:06:55;;;;;;;0.10;0.10;;;14.30;99.90;;;;;;5052234;28;20227;-82
2022/12/31 04:09:21;;;;;;;0.10;0.10;;;14.30;99.90;;;;;;5053588;28;20200;-83
2022/12/31 04:11:46;;;;;;;0.10;0.10;;;14.30;99.90;;;;;;5068208;28;20240;-83
2022/12/31 04:14:12;;;;;;;0.10;0.10;;;14.30;99.90;;;;;;5053602;28;20917;-82
2022/12/31 04:16:37;;;;;;;0.10;0.10;;;14.30;99.90;;;;;;5061896;28;20205;-83
2022/12/31 04:19:03;;;;;;;0.10;0.10;;;14.30;99.90;;;;;;5050496;28;20181;-82
2022/12/31 04:21:29;;;;;;;0.10;0.10;;;14.30;99.90;;;;;;5067587;28;20627;-82
2022/12/31 04:23:54;;;;;;;0.10;0.10;;;14.30;99.90;;;;;;5052101;28;20200;-83
2022/12/31 04:26:20;;;;;;;0.10;0.10;;;14.30;99.90;;;;;;5054409;28;20227;-82
2022/12/31 04:28:46;;;;;;;0.10;0.10;;;14.40;99.90;;;;;;5053141;28;20238;-82
2022/12/31 04:31:11;;;;;;;0.10;0.10;;;14.40;99.90;;;;;;5039651;28;20227;-81
2022/12/31 04:33:37;;;;;;;0.10;0.10;;;14.40;99.90;;;;;;5070153;28;20190;-83
2022/12/31 04:36:04;;;;;;;0.10;0.10;;;14.40;99.90;;;;;;5052022;28;20265;-82
2022/12/31 04:38:31;;;;;;;0.10;0.10;;;14.40;99.90;;;;;;5054397;28;20224;-83
2022/12/31 04:43:41;;;;;;;0.10;0.10;;;14.40;99.90;;;;;;5058587;28;20223;-82
2022/12/31 04:46:06;;;;;;;0.10;0.10;;;14.40;99.90;;;;;;5072379;28;20218;-83
2022/12/31 04:48:33;;;;;;;0.10;0.10;;;14.40;99.90;;;;;;5056271;28;20200;-83
2022/12/31 04:50:59;;;;;;;0.10;0.10;;;14.40;99.90;;;;;;5068754;28;20204;-83
2022/12/31 04:53:24;;;;;;;0.10;0.10;;;14.40;99.90;;;;;;5071544;28;20183;-83
2022/12/31 04:55:50;;;;;;;0.10;0.10;;;14.50;99.90;;;;;;5057639;28;20288;-81
2022/12/31 04:58:16;;;;;;;0.10;0.10;;;14.50;99.90;;;;;;5055636;28;20191;-82
2022/12/31 05:00:43;;;;;;;0.10;0.10;;;14.50;99.90;;;;;;5058643;28;20184;-82
2022/12/31 05:03:09;;;;;;;0.10;0.10;;;14.50;99.90;;;;;;5056462;28;20184;-82
2022/12/31 05:05:37;;;;;;;0.10;0.10;;;14.60;99.90;;;;;;5057355;28;20231;-83
2022/12/31 05:08:03;;;;;;;0.10;0.10;;;14.50;99.90;;;;;;5055552;28;20553;-83
2022/12/31 05:10:29;;;;;;;0.10;0.10;;;14.50;99.90;;;;;;5055567;28;20186;-82
2022/12/31 05:12:55;;;;;;;0.10;0.10;;;14.60;99.90;;;;;;5069697;28;20216;-82
2022/12/31 05:15:20;;;;;;;0.10;0.10;;;14.60;99.90;;;;;;5054469;28;21089;-82
2022/12/31 05:17:46;;;;;;;0.10;0.10;;;14.50;99.90;;;;;;5053909;28;20200;-82
2022/12/31 05:20:11;;;;;;;0.10;0.10;;;14.60;99.90;;;;;;5072850;28;20180;-82
2022/12/31 05:22:37;;;;;;;0.10;0.10;;;14.60;99.90;;;;;;5055586;28;20200;-83
2022/12/31 05:25:02;;;;;;;0.00;0.00;;;14.60;99.90;;;;;;5068630;28;20331;-83
2022/12/31 05:27:31;;;;;;;0.10;0.10;;;14.60;99.90;;;;;;5069467;28;21082;-82
2022/12/31 05:29:57;;;;;;;0.10;0.10;;;14.70;99.90;;;;;;5069300;28;20198;-82
2022/12/31 05:32:22;;;;;;;0.10;0.10;;;14.70;99.90;;;;;;5052527;28;20216;-82
2022/12/31 05:34:48;;;;;;;0.10;0.10;;;14.70;99.90;;;;;;5068354;28;20265;-82
2022/12/31 05:37:13;;;;;;;0.10;0.10;;;14.70;99.90;;;;;;5067461;28;20654;-82
2022/12/31 05:39:39;;;;;;;0.10;0.10;;;14.70;99.90;;;;;;5054603;28;20607;-82
2022/12/31 05:42:04;;;;;;;0.10;0.10;;;14.70;99.90;;;;;;5052905;28;20216;-81
2022/12/31 05:44:30;;;;;;;0.10;0.10;;;14.70;99.90;;;;;;5069791;28;20194;-82
2022/12/31 05:46:55;;;;;;;0.10;0.10;;;14.70;99.90;;;;;;5053764;28;20224;-83
2022/12/31 05:49:21;;;;;;;0.10;0.10;;;14.70;99.90;;;;;;5068792;28;20257;-83
2022/12/31 05:51:46;;;;;;;0.10;0.10;;;14.70;99.90;;;;;;5068504;28;20647;-82
2022/12/31 05:54:12;;;;;;;0.10;0.10;;;14.70;99.90;;;;;;5068976;28;20223;-83
2022/12/31 05:56:37;;;;;;;0.10;0.10;;;14.80;99.90;;;;;;5068826;28;20254;-83
2022/12/31 05:59:03;;;;;;;0.10;0.10;;;14.70;99.90;;;;;;5052857;28;20189;-83
2022/12/31 06:01:28;;;;;;;0.10;0.10;;;14.80;99.90;;;;;;5065848;28;20219;-83
2022/12/31 06:03:54;;;;;;;0.10;0.10;;;14.80;99.90;;;;;;5067345;28;20223;-83
2022/12/31 06:06:19;;;;;;;0.10;0.10;;;14.80;99.90;;;;;;5050405;28;20677;-82
2022/12/31 06:08:49;;;;;;;0.10;0.10;;;14.80;99.90;;;;;;5053516;28;20194;-82
2022/12/31 06:11:14;;;;;;;0.10;0.10;;;14.90;99.90;;;;;;5053593;28;20208;-82
2022/12/31 06:13:40;;;;;;;0.10;0.10;;;14.90;99.90;;;;;;5068866;28;20255;-83
2022/12/31 06:16:07;;;;;;;0.10;0.10;;;14.90;99.90;;;;;;5069512;28;20609;-82
2022/12/31 06:18:32;;;;;;;0.10;0.10;;;14.80;99.90;;;;;;5050970;28;20184;-83
2022/12/31 06:20:58;;;;;;;0.10;0.10;;;14.90;99.90;;;;;;5053541;28;20264;-82
2022/12/31 06:23:23;;;;;;;0.10;0.10;;;14.90;99.90;;;;;;5069574;28;20189;-82
2022/12/31 06:25:49;;;;;;;0.10;0.10;;;14.90;99.90;;;;;;5052062;28;20683;-82
2022/12/31 06:28:15;;;;;;;0.10;0.10;;;14.90;99.90;;;;;;5053825;28;20212;-82
2022/12/31 06:30:40;;;;;;;0.10;0.10;;;14.90;99.90;;;;;;5054858;28;20226;-82
2022/12/31 06:33:06;;;;;;;0.10;0.10;;;15.00;99.90;;;;;;5053152;28;20200;-82
2022/12/31 06:35:31;;;;;;;0.10;0.10;;;15.00;99.90;;;;;;5069116;28;20188;-82
2022/12/31 06:37:57;;;;;;;0.10;0.10;;;15.00;99.90;;;;;;5070351;28;20223;-81
2022/12/31 06:40:22;;;;;;;0.10;0.10;;;15.10;99.90;;;;;;5051855;28;20199;-82
2022/12/31 06:42:48;;;;;;;0.10;0.10;;;15.10;99.90;;;;;;5067493;28;20304;-82
2022/12/31 06:45:14;;;;;;;0.10;0.10;;;15.10;99.90;;;;;;5053344;28;20213;-83
2022/12/31 06:47:39;;;;;;;0.10;0.10;;;15.10;99.90;;;;;;5050032;28;20214;-82
2022/12/31 06:50:06;;;;;;;0.10;0.10;;;15.10;99.90;;;;;;5050561;28;20189;-82
2022/12/31 06:52:31;;;;;;;0.10;0.10;;;15.10;99.90;;;;;;5050432;28;20707;-83
2022/12/31 06:54:57;;;;;;;0.10;0.10;;;15.20;99.90;;;;;;5064898;28;20196;-82
2022/12/31 06:57:23;;;;;;;0.10;0.10;;;15.20;99.90;;;;;;5067008;28;20712;-81
2022/12/31 06:59:49;;;;;;;0.10;0.10;;;15.20;99.90;;;;;;5066681;28;20201;-82
2022/12/31 07:02:43;;;;;;;0.10;0.10;;;15.20;99.90;;;;;;5067702;28;20201;-83
2022/12/31 07:05:25;;;;;;;0.10;0.10;;;15.20;99.90;;;;;;5051944;28;20177;-82
2022/12/31 07:08:28;;;;;;;0.10;0.10;;;15.20;99.90;;;;;;5051469;28;20196;-82
2022/12/31 07:11:01;;;;;;;0.10;0.10;;;15.20;99.90;;;;;;5051600;28;20239;-81
2022/12/31 07:13:52;;;;;;;0.10;0.10;;;15.20;99.90;;;;;;5067613;28;20188;-82
2022/12/31 07:16:31;;;;;;;0.10;0.10;;;15.20;99.90;;;;;;5051939;28;20666;-81
2022/12/31 07:19:30;;;;;;;0.10;0.10;;;15.30;99.90;;;;;;5052192;28;20269;-82
2022/12/31 07:21:57;;;;;;;0.10;0.10;;;15.30;99.90;;;;;;5068033;28;20292;-82
2022/12/31 07:24:23;;;;;;;0.10;0.10;;;15.30;99.90;;;;;;5048529;28;20231;-82
2022/12/31 07:27:34;;;;;;;0.10;0.10;;;15.30;99.90;;;;;;5068058;28;20192;-82
2022/12/31 07:30:11;;;;;;;0.10;0.10;;;15.30;99.90;;;;;;5054234;28;20560;-81
2022/12/31 07:32:58;;;;;;;0.10;0.10;;;15.30;99.90;;;;;;5067112;28;20205;-82
2022/12/31 07:35:23;;;;;;;0.10;0.10;;;15.30;99.90;;;;;;5068042;28;20178;-82
2022/12/31 07:38:01;;;;;;;0.10;0.10;;;15.40;99.90;;;;;;5067355;28;20247;-82
2022/12/31 07:40:50;;;;;;;0.10;0.10;;;15.40;99.90;;;;;;5066675;28;20186;-82
2022/12/31 07:43:35;;;;;;;0.10;0.10;;;15.30;99.90;;;;;;5066560;28;20180;-82
2022/12/31 07:46:25;;;;;;;0.10;0.10;;;15.30;99.90;;;;;;5051996;28;20212;-81
2022/12/31 07:48:51;;;;;;;0.10;0.10;;;15.40;99.90;;;;;;5047227;28;20578;-82
2022/12/31 07:51:17;;;;;;;0.10;0.10;;;15.40;99.90;;;;;;5064062;28;20209;-85
2022/12/31 07:53:42;;;;;;;0.10;0.10;;;15.40;99.90;;;;;;5067736;28;20193;-84
2022/12/31 07:56:09;;;;;;;0.10;0.10;;;15.40;99.90;;;;;;5065817;28;20219;-83
2022/12/31 07:59:04;;;;;;;0.10;0.10;;;15.40;99.90;;;;;;5053369;28;20189;-83
2022/12/31 08:02:01;;;;;;;0.10;0.10;;;15.40;99.90;;;;;;5068763;28;20203;-82
2022/12/31 08:04:47;;;;;;;0.10;0.10;;;15.40;99.90;;;;;;5057001;28;20184;-83
2022/12/31 08:07:28;;;;;;;0.10;0.10;;;15.30;99.90;;;;;;5068816;28;20188;-82
2022/12/31 08:10:25;;;;;;;0.10;0.10;;;15.30;99.90;;;;;;5055260;28;20192;-82
2022/12/31 08:12:59;;;;;;;0.10;0.10;;;15.30;99.90;;;;;;5066551;28;20868;-81
2022/12/31 08:15:25;;;;;;;0.10;0.10;;;15.30;99.90;;;;;;5050953;28;20196;-81
2022/12/31 08:17:50;;;;;;;0.10;0.10;;;15.30;99.90;;;;;;5058762;28;20185;-81
2022/12/31 08:20:17;;;;;;;0.10;0.10;;;15.30;99.90;;;;;;5074622;28;20184;-82
2022/12/31 08:23:00;;;;;;;0.10;0.10;;;15.20;99.90;;;;;;5056328;28;20335;-81
2022/12/31 08:25:37;;;;;;;0.10;0.10;;;15.20;99.90;;;;;;5075580;28;20515;-82
2022/12/31 08:28:09;;;;;;;0.10;0.10;;;15.20;99.90;;;;;;5056526;28;20861;-81
2022/12/31 08:30:56;;;;;;;0.10;0.10;;;15.20;99.90;;;;;;5059626;28;20201;-81
2022/12/31 08:33:42;;;;;;;0.10;0.10;;;15.20;99.90;;;;;;5075015;28;20779;-81
2022/12/31 08:36:40;;;;;;;0.10;0.10;;;15.20;99.90;;;;;;5055162;28;20214;-81
2022/12/31 08:39:32;;;;;;;0.10;0.10;;;15.20;99.90;;;;;;5069848;28;20238;-81
2022/12/31 08:42:02;;;;;;;0.10;0.10;;;15.20;99.90;;;;;;5057537;28;20220;-81
2022/12/31 08:44:54;;;;;;;0.10;0.10;;;15.20;99.90;;;;;;5058921;28;20240;-81
2022/12/31 08:47:52;;;;;;;0.10;0.10;;;15.20;99.90;;;;;;5070662;28;20223;-81
2022/12/31 08:50:18;;;;;;;0.10;0.10;;;15.20;99.90;;;;;;5052963;28;20181;-81
2022/12/31 08:52:45;;;;;;;0.10;0.10;;;15.20;99.90;;;;;;5071242;28;20589;-81
2022/12/31 08:55:16;;;;;;;0.10;0.10;;;15.20;99.90;;;;;;5054236;28;20192;-81
2022/12/31 08:57:45;;;;;;;0.10;0.10;;;15.20;99.90;;;;;;5056401;28;20213;-81
2022/12/31 09:00:14;;;;;;;0.10;0.10;;;15.20;99.90;;;;;;5060702;28;21062;-80
2022/12/31 09:02:58;;;;;;;0.10;0.10;;;15.30;99.90;;;;;;5074554;28;20223;-82
2022/12/31 09:05:52;;;;;;;0.10;0.10;;;15.30;99.90;;;;;;5070444;28;20173;-81
2022/12/31 09:08:36;;;;;;;0.10;0.10;;;15.30;99.90;;;;;;5055800;28;20185;-81
2022/12/31 09:11:19;;;;;;;0.10;0.10;;;15.40;99.90;;;;;;5072523;28;20205;-81
2022/12/31 09:14:00;;;;;;;0.10;0.10;;;15.50;99.90;;;;;;5054803;28;20284;-82
2022/12/31 09:17:00;;;;;;;0.10;0.10;;;15.50;99.90;;;;;;5065286;28;21208;-81
2022/12/31 09:19:26;;;;;;;0.10;0.10;;;15.50;99.90;;;;;;5074505;28;20178;-81
2022/12/31 09:21:52;;;;;;;0.10;0.10;;;15.50;99.90;;;;;;5069179;28;20206;-82
2022/12/31 09:24:18;;;;;;;0.10;0.10;;;15.50;99.90;;;;;;5055012;28;20691;-82
2022/12/31 09:26:51;;;;;;;0.10;0.10;;;15.60;99.90;;;;;;5070397;28;20217;-82
2022/12/31 09:29:20;;;;;;;0.10;0.10;;;15.60;99.90;;;;;;5056792;28;20597;-82
2022/12/31 09:32:11;;;;;;;0.10;0.10;;;15.60;99.90;;;;;;5068034;28;20206;-82
2022/12/31 09:34:59;;;;;;;0.10;0.10;;;15.60;99.90;;;;;;5054095;28;20182;-81
2022/12/31 09:37:47;;;;;;;0.10;0.10;;;15.70;99.90;;;;;;5068397;28;20233;-81
2022/12/31 09:40:27;;;;;;;0.10;0.10;;;15.80;99.90;;;;;;5049816;28;20268;-83
2022/12/31 09:43:12;;;;;;;0.10;0.10;;;15.80;99.90;;;;;;5051841;28;20212;-82
2022/12/31 09:46:17;;;;;;;0.10;0.10;;;15.90;99.90;;;;;;5065732;28;20550;-82
2022/12/31 09:49:13;;;;;;;0.10;0.10;;;16.00;99.90;;;;;;5068942;28;20222;-81
2022/12/31 09:52:12;;;;;;;0.10;0.10;;;16.10;99.90;;;;;;5052178;28;20265;-81
2022/12/31 09:55:32;;;;;;;0.10;0.10;;;16.10;99.90;;;;;;5058295;28;20212;-80
2022/12/31 09:58:14;;;;;;;0.10;0.10;;;16.20;99.90;;;;;;5069161;28;20278;-80
2022/12/31 10:00:49;;;;;;;0.10;0.10;;;16.30;99.90;;;;;;5049432;28;20192;-82
2022/12/31 10:03:33;;;;;;;0.10;0.10;;;16.30;99.90;;;;;;5051768;28;20212;-81
2022/12/31 10:06:23;;;;;;;0.10;0.10;;;16.50;99.90;;;;;;5065797;28;20181;-82
2022/12/31 10:09:20;;;;;;;0.10;0.10;;;16.60;99.90;;;;;;5049994;28;20190;-81
2022/12/31 10:12:19;;;;;;;0.10;0.10;;;16.70;99.90;;;;;;5051031;28;20235;-82
2022/12/31 10:15:23;;;;;;;0.10;0.10;;;16.80;99.90;;;;;;5066057;28;20196;-82
2022/12/31 10:18:16;;;;;;;0.10;0.10;;;16.70;99.90;;;;;;5052435;28;20217;-81
2022/12/31 10:21:08;;;;;;;0.10;0.10;;;16.60;99.90;;;;;;5049317;28;20184;-81
2022/12/31 10:23:47;;;;;;;0.10;0.10;;;16.60;99.90;;;;;;5036283;28;20456;-84
2022/12/31 10:26:18;;;;;;;0.10;0.10;;;16.60;99.90;;;;;;5060051;28;20572;-82
2022/12/31 10:29:04;;;;;;;0.10;0.10;;;16.70;99.90;;;;;;5050678;28;20243;-82
2022/12/31 10:31:44;;;;;;;0.10;0.10;;;16.70;99.90;;;;;;5052100;28;20291;-82
2022/12/31 10:34:24;;;;;;;0.10;0.10;;;16.90;99.90;;;;;;5069995;28;20194;-82
2022/12/31 10:37:14;;;;;;;0.10;0.10;;;17.00;99.90;;;;;;5052168;28;20802;-84
2022/12/31 10:40:09;;;;;;;0.10;0.10;;;17.10;99.90;;;;;;5065837;28;20334;-82
2022/12/31 10:43:02;;;;;;;0.10;0.10;;;17.20;99.90;;;;;;5049100;28;20233;-85
2022/12/31 10:46:00;;;;;;;0.10;0.10;;;17.20;99.90;;;;;;5070152;28;20188;-84
2022/12/31 10:48:37;;;;;;;0.10;0.10;;;17.30;99.90;;;;;;5020133;28;20200;-84
2022/12/31 10:51:17;;;;;;;0.10;0.10;;;17.40;99.90;;;;;;5066416;28;20229;-85
2022/12/31 10:54:28;;;;;;;0.10;0.10;;;17.50;99.90;;;;;;5068653;28;20276;-84
2022/12/31 10:57:14;;;;;;;0.10;0.10;;;17.60;99.90;;;;;;5050786;28;20246;-84
2022/12/31 10:59:58;;;;;;;0.10;0.10;;;17.70;99.90;;;;;;5069309;28;20288;-84
2022/12/31 11:02:49;;;;;;;0.10;0.10;;;17.70;99.90;;;;;;5069516;28;20198;-85
2022/12/31 11:05:38;;;;;;;0.10;0.10;;;17.50;99.90;;;;;;5066927;28;20180;-84
2022/12/31 11:08:22;;;;;;;0.10;0.10;;;17.30;99.90;;;;;;5067567;28;20651;-84
2022/12/31 11:11:12;;;;;;;0.10;0.10;;;17.30;99.90;;;;;;5051569;28;20198;-84
2022/12/31 11:13:51;;;;;;;0.10;0.10;;;17.20;99.90;;;;;;5069411;28;20711;-82
2022/12/31 11:16:22;;;;;;;0.10;0.10;;;17.20;99.90;;;;;;5049970;28;20196;-83
2022/12/31 11:19:16;;;;;;;0.10;0.10;;;17.20;99.90;;;;;;5065292;28;20185;-82
2022/12/31 11:22:08;;;;;;;0.10;0.10;;;17.30;99.90;;;;;;5060349;28;20217;-83
2022/12/31 11:25:12;;;;;;;0.10;0.10;;;17.30;99.90;;;;;;5052891;28;20907;-82
2022/12/31 11:28:09;;;;;;;0.10;0.10;;;17.40;99.90;;;;;;5050591;28;20244;-84
2022/12/31 11:30:40;;;;;;;0.10;0.10;;;17.40;99.90;;;;;;5069552;28;20219;-83
2022/12/31 11:33:34;;;;;;;0.10;0.10;;;17.30;99.90;;;;;;5066089;28;20231;-84
2022/12/31 11:36:27;;;;;;;0.10;0.10;;;17.40;99.90;;;;;;5066768;28;20797;-83
2022/12/31 11:39:28;;;;;;;0.10;0.10;;;17.40;99.90;;;;;;5069606;28;20186;-83
2022/12/31 11:42:10;;;;;;;0.10;0.10;;;17.40;99.90;;;;;;5073848;28;20234;-84
2022/12/31 11:44:52;;;;;;;0.10;0.10;;;17.40;99.90;;;;;;5069907;28;20518;-84
2022/12/31 11:47:40;;;;;;;0.10;0.10;;;17.40;99.90;;;;;;5072238;28;20189;-82
2022/12/31 11:50:20;;;;;;;0.10;0.10;;;17.40;99.90;;;;;;5076055;28;20601;-82
2022/12/31 11:53:22;;;;;;;0.10;0.10;;;17.40;99.90;;;;;;5076617;28;20325;-83
2022/12/31 11:56:16;;;;;;;0.10;0.10;;;17.50;99.90;;;;;;5059356;28;20189;-83
2022/12/31 11:58:51;;;;;;;0.10;0.10;;;17.50;99.90;;;;;;5076059;28;20207;-82
2022/12/31 12:01:26;;;;;;;0.10;0.10;;;17.50;99.90;;;;;;5068687;28;21023;-82
2022/12/31 12:03:51;;;;;;;0.10;0.10;;;17.60;99.90;;;;;;5072759;28;20199;-84
2022/12/31 12:06:25;;;;;;;0.10;0.10;;;17.60;99.90;;;;;;5059990;28;20182;-83
2022/12/31 12:08:52;;;;;;;0.10;0.10;;;17.70;99.90;;;;;;5055435;28;20189;-83
2022/12/31 12:11:22;;;;;;;0.10;0.10;;;17.60;99.90;;;;;;5070973;28;20270;-84
2022/12/31 12:13:48;;;;;;;0.10;0.10;;;17.70;99.90;;;;;;5068272;28;20193;-83
2022/12/31 12:16:14;;;;;;;0.10;0.10;;;17.80;99.90;;;;;;5055242;28;20209;-84
2022/12/31 12:18:50;;;;;;;0.10;0.10;;;18.00;99.90;;;;;;5070734;28;20711;-84
2022/12/31 12:21:24;;;;;;;0.10;0.10;;;18.00;99.90;;;;;;5067226;28;20205;-83
2022/12/31 12:24:01;;;;;;;0.10;0.10;;;18.10;99.90;;;;;;5049880;28;20189;-83
2022/12/31 12:26:33;;;;;;;0.10;0.10;;;18.00;99.90;;;;;;5053518;28;20266;-83
2022/12/31 12:29:14;;;;;;;0.10;0.10;;;17.90;99.90;;;;;;5052799;28;20208;-83
2022/12/31 12:31:40;;;;;;;0.10;0.10;;;17.90;99.90;;;;;;5066726;28;20216;-83
2022/12/31 12:34:22;;;;;;;0.10;0.10;;;17.80;99.90;;;;;;5056527;28;20209;-83
2022/12/31 12:36:47;;;;;;;0.10;0.10;;;17.80;99.90;;;;;;5056624;28;20197;-82
2022/12/31 12:39:22;;;;;;;0.10;0.10;;;17.70;99.90;;;;;;5053810;28;21357;-82
2022/12/31 12:42:10;;;;;;;0.10;0.10;;;17.70;99.90;;;;;;5071843;28;20249;-84
2022/12/31 12:44:36;;;;;;;0.10;0.10;;;17.60;99.90;;;;;;5055505;28;20193;-82
2022/12/31 12:47:05;;;;;;;0.10;0.10;;;17.50;99.90;;;;;;5072733;28;20177;-83
2022/12/31 12:49:36;;;;;;;0.10;0.10;;;17.50;99.90;;;;;;5071075;28;20202;-83
2022/12/31 12:52:30;;;;;;;0.10;0.10;;;17.60;99.90;;;;;;5072000;28;20575;-82
2022/12/31 12:55:26;;;;;;;0.10;0.10;;;17.50;99.90;;;;;;5059402;28;20212;-82
2022/12/31 12:58:20;;;;;;;0.10;0.10;;;17.50;99.90;;;;;;5054751;28;20255;-83
2022/12/31 13:01:14;;;;;;;0.10;0.10;;;17.40;99.90;;;;;;5059528;28;20196;-83
2022/12/31 13:03:52;;;;;;;0.10;0.10;;;17.40;99.90;;;;;;5055621;28;20196;-82
2022/12/31 13:06:52;;;;;;;0.10;0.10;;;17.30;99.90;;;;;;5071437;28;20678;-83
2022/12/31 13:09:38;;;;;;;0.10;0.10;;;17.30;99.90;;;;;;5072161;28;20296;-83
2022/12/31 13:12:23;;;;;;;0.10;0.10;;;17.30;99.90;;;;;;5070628;28;20674;-83
2022/12/31 13:15:00;;;;;;;0.10;0.10;;;17.40;99.90;;;;;;5052211;28;20260;-83
2022/12/31 13:17:52;;;;;;;0.10;0.10;;;17.40;99.90;;;;;;5068172;28;20205;-83
2022/12/31 13:20:21;;;;;;;0.10;0.10;;;17.50;99.90;;;;;;5053107;28;20732;-84
2022/12/31 13:23:24;;;;;;;0.10;0.10;;;17.50;99.90;;;;;;5070019;28;20205;-84
2022/12/31 13:26:15;;;;;;;0.10;0.10;;;17.40;99.90;;;;;;5040631;28;20201;-84
2022/12/31 13:28:42;;;;;;;0.10;0.10;;;17.30;99.90;;;;;;5053355;28;20185;-84
2022/12/31 13:31:19;;;;;;;0.10;0.10;;;17.30;99.90;;;;;;5055126;28;20267;-83
2022/12/31 13:33:51;;;;;;;0.10;0.10;;;17.30;99.90;;;;;;5051753;28;20186;-84
2022/12/31 13:36:20;;;;;;;0.10;0.10;;;17.40;99.90;;;;;;5051444;28;20345;-82
2022/12/31 13:38:51;;;;;;;0.10;0.10;;;17.40;99.90;;;;;;5051817;28;20268;-83
2022/12/31 13:41:54;;;;;;;0.10;0.10;;;17.50;99.90;;;;;;5067499;28;20203;-84